REU274 FMEE-FMCZ
Flight info
| Callsign | REU274 |
|---|---|
| Flight time | 1h 51m |
| Altitude | 40000 |
| Route | DOBUT2N DOBUT UB790 SOAVI |
| Aircraft | B77L/H-SDE1E2E3FGHIJ2J3J4J5M1RWXY/LB1D1 |
Departure
| Time | 2026-04-14 16:34 |
|---|---|
| Airport | Roland Garros Airport (FMEE) |
Arrival
| Time | 2026-04-14 18:25 |
|---|---|
| Airport | Dzaoudzi Pamandzi International Airport (FMCZ) |
| Time | Latitude | Longitude | Altitude | Speed | Heading |
|---|---|---|---|---|---|
| 2026-04-14 16:11 | -20.89106 | 55.51303 | 48 ft | 0 kts | 207° |
| 2026-04-14 16:25 | -20.89098 | 55.51307 | 162 ft | 2 kts | 213° |
| 2026-04-14 16:25 | -20.89086 | 55.51318 | 160 ft | 2 kts | 227° |
| 2026-04-14 16:25 | -20.89077 | 55.51330 | 159 ft | 2 kts | 237° |
| 2026-04-14 16:26 | -20.89070 | 55.51344 | 158 ft | 2 kts | 248° |
| 2026-04-14 16:26 | -20.89065 | 55.51359 | 158 ft | 2 kts | 259° |
| 2026-04-14 16:26 | -20.89063 | 55.51375 | 157 ft | 2 kts | 270° |
| 2026-04-14 16:26 | -20.89064 | 55.51391 | 157 ft | 2 kts | 281° |
| 2026-04-14 16:27 | -20.89068 | 55.51407 | 157 ft | 2 kts | 292° |
| 2026-04-14 16:27 | -20.89075 | 55.51421 | 157 ft | 2 kts | 297° |
| 2026-04-14 16:27 | -20.89082 | 55.51435 | 157 ft | 2 kts | 296° |
| 2026-04-14 16:27 | -20.89088 | 55.51449 | 158 ft | 1 kts | 295° |
| 2026-04-14 16:28 | -20.89089 | 55.51451 | 158 ft | 0 kts | 295° |
| 2026-04-14 16:29 | -20.89087 | 55.51447 | 155 ft | 3 kts | 295° |
| 2026-04-14 16:29 | -20.89068 | 55.51407 | 153 ft | 8 kts | 296° |
| 2026-04-14 16:30 | -20.89038 | 55.51341 | 151 ft | 11 kts | 296° |
| 2026-04-14 16:30 | -20.88998 | 55.51256 | 150 ft | 12 kts | 296° |
| 2026-04-14 16:30 | -20.88959 | 55.51200 | 148 ft | 10 kts | 332° |
| 2026-04-14 16:30 | -20.88867 | 55.51163 | 141 ft | 17 kts | 340° |
| 2026-04-14 16:31 | -20.88753 | 55.51115 | 133 ft | 15 kts | 322° |
| 2026-04-14 16:31 | -20.88707 | 55.51008 | 131 ft | 16 kts | 282° |
| 2026-04-14 16:31 | -20.88680 | 55.50879 | 130 ft | 18 kts | 282° |
| 2026-04-14 16:31 | -20.88651 | 55.50735 | 130 ft | 19 kts | 280° |
| 2026-04-14 16:32 | -20.88627 | 55.50606 | 129 ft | 14 kts | 282° |
| 2026-04-14 16:32 | -20.88599 | 55.50535 | 127 ft | 10 kts | 310° |
| 2026-04-14 16:32 | -20.88586 | 55.50496 | 125 ft | 4 kts | 207° |
| 2026-04-14 16:32 | -20.88604 | 55.50519 | 127 ft | 4 kts | 110° |
| 2026-04-14 16:33 | -20.88627 | 55.50612 | 129 ft | 34 kts | 101° |
| 2026-04-14 16:33 | -20.88728 | 55.51121 | 131 ft | 104 kts | 102° |
| 2026-04-14 16:33 | -20.88920 | 55.52095 | 127 ft | 160 kts | 104° |
| 2026-04-14 16:33 | -20.89162 | 55.53315 | 557 ft | 168 kts | 103° |
| 2026-04-14 16:34 | -20.89242 | 55.54555 | 1241 ft | 172 kts | 78° |
| 2026-04-14 16:34 | -20.88758 | 55.55705 | 1661 ft | 177 kts | 52° |
| 2026-04-14 16:34 | -20.87769 | 55.56561 | 1861 ft | 192 kts | 22° |
| 2026-04-14 16:34 | -20.86411 | 55.56796 | 2061 ft | 207 kts | 356° |
| 2026-04-14 16:35 | -20.84905 | 55.56666 | 2327 ft | 224 kts | 353° |
| 2026-04-14 16:35 | -20.83296 | 55.56506 | 2671 ft | 239 kts | 354° |
| 2026-04-14 16:35 | -20.81598 | 55.56336 | 3012 ft | 254 kts | 354° |
| 2026-04-14 16:35 | -20.79780 | 55.56155 | 3405 ft | 267 kts | 354° |
| 2026-04-14 16:36 | -20.77914 | 55.55882 | 3976 ft | 271 kts | 344° |
| 2026-04-14 16:36 | -20.76112 | 55.55201 | 4565 ft | 274 kts | 338° |
| 2026-04-14 16:36 | -20.74331 | 55.54416 | 5160 ft | 277 kts | 337° |
| 2026-04-14 16:36 | -20.72556 | 55.53632 | 5740 ft | 280 kts | 338° |
| 2026-04-14 16:37 | -20.70737 | 55.52835 | 6322 ft | 282 kts | 338° |
| 2026-04-14 16:37 | -20.68930 | 55.52048 | 6892 ft | 285 kts | 338° |
| 2026-04-14 16:37 | -20.67079 | 55.51242 | 7457 ft | 287 kts | 338° |
| 2026-04-14 16:37 | -20.65205 | 55.50427 | 8009 ft | 290 kts | 338° |
| 2026-04-14 16:38 | -20.63336 | 55.49614 | 8584 ft | 292 kts | 338° |
| 2026-04-14 16:38 | -20.61449 | 55.48793 | 9252 ft | 293 kts | 338° |
| 2026-04-14 16:38 | -20.59579 | 55.47980 | 9922 ft | 294 kts | 337° |
| 2026-04-14 16:38 | -20.57770 | 55.46906 | 10448 ft | 301 kts | 320° |
| 2026-04-14 16:39 | -20.56326 | 55.45221 | 10671 ft | 315 kts | 307° |
| 2026-04-14 16:39 | -20.55011 | 55.43302 | 10757 ft | 331 kts | 305° |
| 2026-04-14 16:39 | -20.53620 | 55.41269 | 10855 ft | 346 kts | 306° |
| 2026-04-14 16:39 | -20.52154 | 55.39161 | 10948 ft | 361 kts | 306° |
| 2026-04-14 16:40 | -20.50618 | 55.36968 | 11133 ft | 373 kts | 306° |
| 2026-04-14 16:40 | -20.49066 | 55.34760 | 11531 ft | 379 kts | 306° |
| 2026-04-14 16:40 | -20.47484 | 55.32457 | 12041 ft | 382 kts | 303° |
| 2026-04-14 16:40 | -20.46065 | 55.30088 | 12606 ft | 384 kts | 301° |
| 2026-04-14 16:41 | -20.44640 | 55.27666 | 13204 ft | 386 kts | 301° |
| 2026-04-14 16:41 | -20.43212 | 55.25242 | 13783 ft | 389 kts | 301° |
| 2026-04-14 16:41 | -20.41766 | 55.22786 | 14372 ft | 393 kts | 301° |
| 2026-04-14 16:41 | -20.40317 | 55.20327 | 14983 ft | 398 kts | 301° |
| 2026-04-14 16:42 | -20.38838 | 55.17817 | 15645 ft | 401 kts | 301° |
| 2026-04-14 16:42 | -20.37348 | 55.15290 | 16320 ft | 404 kts | 301° |
| 2026-04-14 16:42 | -20.35859 | 55.12767 | 16926 ft | 408 kts | 301° |
| 2026-04-14 16:42 | -20.34326 | 55.10169 | 17499 ft | 413 kts | 301° |
| 2026-04-14 16:43 | -20.32801 | 55.07587 | 18136 ft | 417 kts | 301° |
| 2026-04-14 16:43 | -20.31262 | 55.04980 | 18743 ft | 420 kts | 301° |
| 2026-04-14 16:43 | -20.29698 | 55.02334 | 19317 ft | 425 kts | 301° |
| 2026-04-14 16:43 | -20.28114 | 54.99656 | 19899 ft | 429 kts | 301° |
| 2026-04-14 16:44 | -20.26516 | 54.96953 | 20511 ft | 432 kts | 301° |
| 2026-04-14 16:44 | -20.24911 | 54.94241 | 21076 ft | 436 kts | 301° |
| 2026-04-14 16:44 | -20.23303 | 54.91526 | 21640 ft | 440 kts | 301° |
| 2026-04-14 16:45 | -20.20029 | 54.86000 | 22824 ft | 445 kts | 301° |
| 2026-04-14 16:45 | -20.18351 | 54.83170 | 23338 ft | 450 kts | 301° |
| 2026-04-14 16:45 | -20.16686 | 54.80363 | 23851 ft | 455 kts | 301° |
| 2026-04-14 16:45 | -20.14988 | 54.77503 | 24405 ft | 458 kts | 301° |
| 2026-04-14 16:46 | -20.13293 | 54.74648 | 24933 ft | 461 kts | 301° |
| 2026-04-14 16:46 | -20.11564 | 54.71738 | 25451 ft | 465 kts | 301° |
| 2026-04-14 16:46 | -20.09847 | 54.68849 | 25943 ft | 469 kts | 301° |
| 2026-04-14 16:46 | -20.08089 | 54.65894 | 26412 ft | 473 kts | 301° |
| 2026-04-14 16:47 | -20.06316 | 54.62914 | 26899 ft | 476 kts | 301° |
| 2026-04-14 16:47 | -20.04564 | 54.59971 | 27397 ft | 479 kts | 300° |
| 2026-04-14 16:47 | -20.02770 | 54.56958 | 27864 ft | 482 kts | 300° |
| 2026-04-14 16:47 | -20.00966 | 54.53931 | 28327 ft | 485 kts | 300° |
| 2026-04-14 16:48 | -19.99174 | 54.50925 | 28787 ft | 488 kts | 300° |
| 2026-04-14 16:48 | -19.97354 | 54.47875 | 29226 ft | 491 kts | 300° |
| 2026-04-14 16:48 | -19.95527 | 54.44814 | 29704 ft | 492 kts | 300° |
| 2026-04-14 16:48 | -19.93689 | 54.41736 | 30344 ft | 490 kts | 300° |
| 2026-04-14 16:49 | -19.91890 | 54.38727 | 31046 ft | 486 kts | 300° |
| 2026-04-14 16:49 | -19.90074 | 54.35689 | 31736 ft | 482 kts | 300° |
| 2026-04-14 16:49 | -19.88287 | 54.32702 | 32366 ft | 479 kts | 301° |
| 2026-04-14 16:49 | -19.86505 | 54.29726 | 32932 ft | 477 kts | 301° |
| 2026-04-14 16:50 | -19.84731 | 54.26763 | 33518 ft | 475 kts | 301° |
| 2026-04-14 16:50 | -19.82971 | 54.23826 | 34198 ft | 472 kts | 301° |
| 2026-04-14 16:50 | -19.81219 | 54.20903 | 34896 ft | 468 kts | 300° |
| 2026-04-14 16:50 | -19.79499 | 54.18034 | 35551 ft | 465 kts | 300° |
| 2026-04-14 16:51 | -19.77758 | 54.15133 | 36154 ft | 462 kts | 300° |
| 2026-04-14 16:51 | -19.76042 | 54.12274 | 36616 ft | 461 kts | 300° |
| 2026-04-14 16:51 | -19.74317 | 54.09401 | 36980 ft | 461 kts | 300° |
| 2026-04-14 16:51 | -19.72594 | 54.06533 | 37310 ft | 461 kts | 300° |
| 2026-04-14 16:52 | -19.70892 | 54.03702 | 37637 ft | 461 kts | 300° |
| 2026-04-14 16:52 | -19.69150 | 54.00805 | 38002 ft | 459 kts | 300° |
| 2026-04-14 16:52 | -19.67444 | 53.97969 | 38414 ft | 456 kts | 300° |
| 2026-04-14 16:52 | -19.65743 | 53.95145 | 38748 ft | 455 kts | 300° |
| 2026-04-14 16:53 | -19.64047 | 53.92329 | 39048 ft | 454 kts | 300° |
| 2026-04-14 16:53 | -19.62342 | 53.89499 | 39236 ft | 455 kts | 300° |
| 2026-04-14 16:53 | -19.60641 | 53.86676 | 39406 ft | 455 kts | 300° |
| 2026-04-14 16:53 | -19.58938 | 53.83852 | 39611 ft | 455 kts | 300° |
| 2026-04-14 16:54 | -19.57259 | 53.81068 | 39855 ft | 453 kts | 300° |
| 2026-04-14 16:54 | -19.55543 | 53.78225 | 40027 ft | 453 kts | 300° |
| 2026-04-14 16:54 | -19.52153 | 53.72613 | 40008 ft | 455 kts | 300° |
| 2026-04-14 16:55 | -19.48719 | 53.66934 | 40018 ft | 453 kts | 300° |
| 2026-04-14 16:55 | -19.45342 | 53.61352 | 40014 ft | 454 kts | 300° |
| 2026-04-14 16:56 | -19.41920 | 53.55703 | 40014 ft | 453 kts | 300° |
| 2026-04-14 16:56 | -19.38528 | 53.50108 | 40011 ft | 454 kts | 300° |
| 2026-04-14 16:57 | -19.35117 | 53.44485 | 40001 ft | 455 kts | 300° |
| 2026-04-14 16:57 | -19.31405 | 53.39066 | 39998 ft | 454 kts | 306° |
| 2026-04-14 16:58 | -19.27482 | 53.33873 | 40020 ft | 453 kts | 307° |
| 2026-04-14 16:58 | -19.23509 | 53.28619 | 40021 ft | 454 kts | 307° |
| 2026-04-14 16:59 | -19.19571 | 53.23414 | 40016 ft | 452 kts | 307° |
| 2026-04-14 16:59 | -19.15640 | 53.18221 | 40015 ft | 454 kts | 307° |
| 2026-04-14 17:00 | -19.11709 | 53.13034 | 40007 ft | 453 kts | 307° |
| 2026-04-14 17:00 | -19.07733 | 53.07791 | 40016 ft | 454 kts | 307° |
| 2026-04-14 17:01 | -19.03761 | 53.02558 | 40017 ft | 453 kts | 307° |
| 2026-04-14 17:01 | -18.99821 | 52.97370 | 40016 ft | 452 kts | 307° |
| 2026-04-14 17:02 | -18.95876 | 52.92181 | 40022 ft | 453 kts | 307° |
| 2026-04-14 17:02 | -18.91920 | 52.86981 | 40005 ft | 453 kts | 307° |
| 2026-04-14 17:03 | -18.87967 | 52.81790 | 40014 ft | 454 kts | 307° |
| 2026-04-14 17:03 | -18.83986 | 52.76567 | 40015 ft | 454 kts | 307° |
| 2026-04-14 17:04 | -18.80015 | 52.71360 | 40009 ft | 454 kts | 307° |
| 2026-04-14 17:04 | -18.76055 | 52.66173 | 40000 ft | 454 kts | 307° |
| 2026-04-14 17:05 | -18.72095 | 52.60989 | 39991 ft | 455 kts | 307° |
| 2026-04-14 17:05 | -18.68127 | 52.55800 | 40031 ft | 455 kts | 307° |
| 2026-04-14 17:06 | -18.64151 | 52.50606 | 40006 ft | 454 kts | 307° |
| 2026-04-14 17:06 | -18.60195 | 52.45440 | 40007 ft | 455 kts | 307° |
| 2026-04-14 17:07 | -18.56227 | 52.40264 | 40002 ft | 455 kts | 307° |
| 2026-04-14 17:07 | -18.52238 | 52.35065 | 39990 ft | 456 kts | 307° |
| 2026-04-14 17:08 | -18.48263 | 52.29887 | 39979 ft | 457 kts | 308° |
| 2026-04-14 17:08 | -18.44263 | 52.24682 | 39975 ft | 456 kts | 308° |
| 2026-04-14 17:09 | -18.40289 | 52.19515 | 39995 ft | 454 kts | 308° |
| 2026-04-14 17:09 | -18.36306 | 52.14340 | 39995 ft | 457 kts | 308° |
| 2026-04-14 17:10 | -18.32289 | 52.09125 | 40010 ft | 456 kts | 308° |
| 2026-04-14 17:10 | -18.28305 | 52.03958 | 39991 ft | 455 kts | 308° |
| 2026-04-14 17:11 | -18.24313 | 51.98785 | 40025 ft | 458 kts | 308° |
| 2026-04-14 17:11 | -18.20271 | 51.93551 | 39985 ft | 457 kts | 308° |
| 2026-04-14 17:12 | -18.16263 | 51.88364 | 40004 ft | 457 kts | 308° |
| 2026-04-14 17:12 | -18.12272 | 51.83205 | 40023 ft | 456 kts | 308° |
| 2026-04-14 17:13 | -18.08249 | 51.78007 | 39975 ft | 456 kts | 308° |
| 2026-04-14 17:13 | -18.04240 | 51.72832 | 39978 ft | 455 kts | 308° |
| 2026-04-14 17:14 | -18.00251 | 51.67687 | 39990 ft | 458 kts | 308° |
| 2026-04-14 17:14 | -17.96222 | 51.62495 | 39984 ft | 458 kts | 308° |
| 2026-04-14 17:15 | -17.92202 | 51.57319 | 39980 ft | 457 kts | 308° |
| 2026-04-14 17:15 | -17.88199 | 51.52167 | 39981 ft | 457 kts | 308° |
| 2026-04-14 17:16 | -17.84179 | 51.46999 | 39998 ft | 457 kts | 308° |
| 2026-04-14 17:16 | -17.80164 | 51.41841 | 39996 ft | 457 kts | 308° |
| 2026-04-14 17:17 | -17.76136 | 51.36671 | 39991 ft | 456 kts | 308° |
| 2026-04-14 17:17 | -17.72127 | 51.31529 | 40000 ft | 456 kts | 308° |
| 2026-04-14 17:18 | -17.68111 | 51.26381 | 40005 ft | 457 kts | 308° |
| 2026-04-14 17:18 | -17.64081 | 51.21220 | 39981 ft | 458 kts | 308° |
| 2026-04-14 17:19 | -17.60027 | 51.16032 | 40005 ft | 457 kts | 308° |
| 2026-04-14 17:19 | -17.55978 | 51.10856 | 39993 ft | 457 kts | 308° |
| 2026-04-14 17:20 | -17.51942 | 51.05698 | 39997 ft | 457 kts | 308° |
| 2026-04-14 17:20 | -17.47896 | 51.00533 | 39985 ft | 458 kts | 308° |
| 2026-04-14 17:21 | -17.43854 | 50.95376 | 39994 ft | 458 kts | 308° |
| 2026-04-14 17:21 | -17.39818 | 50.90234 | 39990 ft | 457 kts | 308° |
| 2026-04-14 17:22 | -17.35813 | 50.85135 | 39992 ft | 456 kts | 308° |
| 2026-04-14 17:22 | -17.31781 | 50.80005 | 39988 ft | 457 kts | 308° |
| 2026-04-14 17:23 | -17.27728 | 50.74853 | 39990 ft | 457 kts | 308° |
| 2026-04-14 17:23 | -17.23703 | 50.69741 | 39985 ft | 457 kts | 308° |
| 2026-04-14 17:24 | -17.19659 | 50.64608 | 39985 ft | 458 kts | 308° |
| 2026-04-14 17:24 | -17.15582 | 50.59436 | 39985 ft | 457 kts | 308° |
| 2026-04-14 17:25 | -17.11553 | 50.54330 | 39997 ft | 456 kts | 308° |
| 2026-04-14 17:25 | -17.07504 | 50.49202 | 39991 ft | 458 kts | 308° |
| 2026-04-14 17:26 | -17.03445 | 50.44065 | 39980 ft | 456 kts | 308° |
| 2026-04-14 17:26 | -16.99425 | 50.38982 | 39986 ft | 457 kts | 308° |
| 2026-04-14 17:27 | -16.95359 | 50.33844 | 39993 ft | 457 kts | 308° |
| 2026-04-14 17:27 | -16.91298 | 50.28716 | 39989 ft | 457 kts | 308° |
| 2026-04-14 17:28 | -16.87265 | 50.23627 | 39992 ft | 457 kts | 308° |
| 2026-04-14 17:28 | -16.83191 | 50.18491 | 39996 ft | 457 kts | 308° |
| 2026-04-14 17:29 | -16.79147 | 50.13396 | 39997 ft | 457 kts | 308° |
| 2026-04-14 17:29 | -16.75110 | 50.08313 | 39992 ft | 456 kts | 308° |
| 2026-04-14 17:30 | -16.71052 | 50.03208 | 39996 ft | 457 kts | 308° |
| 2026-04-14 17:30 | -16.67003 | 49.98119 | 39988 ft | 458 kts | 308° |
| 2026-04-14 17:31 | -16.62929 | 49.93000 | 39998 ft | 457 kts | 308° |
| 2026-04-14 17:31 | -16.58854 | 49.87884 | 39997 ft | 458 kts | 308° |
| 2026-04-14 17:32 | -16.54813 | 49.82815 | 40010 ft | 458 kts | 308° |
| 2026-04-14 17:32 | -16.50756 | 49.77728 | 40029 ft | 457 kts | 308° |
| 2026-04-14 17:33 | -16.46684 | 49.72627 | 40035 ft | 457 kts | 308° |
| 2026-04-14 17:34 | -16.40593 | 49.65004 | 40039 ft | 457 kts | 308° |
| 2026-04-14 17:34 | -16.36518 | 49.59907 | 40049 ft | 459 kts | 308° |
| 2026-04-14 17:35 | -16.32434 | 49.54805 | 40053 ft | 458 kts | 308° |
| 2026-04-14 17:35 | -16.28354 | 49.49710 | 40048 ft | 459 kts | 308° |
| 2026-04-14 17:36 | -16.24271 | 49.44615 | 40061 ft | 458 kts | 308° |
| 2026-04-14 17:36 | -16.20195 | 49.39533 | 40070 ft | 458 kts | 308° |
| 2026-04-14 17:37 | -16.16132 | 49.34471 | 40092 ft | 457 kts | 308° |
| 2026-04-14 17:37 | -16.12055 | 49.29395 | 40106 ft | 458 kts | 308° |
| 2026-04-14 17:38 | -16.07963 | 49.24303 | 40121 ft | 457 kts | 308° |
| 2026-04-14 17:38 | -16.03897 | 49.19247 | 40121 ft | 458 kts | 308° |
| 2026-04-14 17:39 | -15.99817 | 49.14177 | 40111 ft | 458 kts | 308° |
| 2026-04-14 17:39 | -15.95717 | 49.09087 | 40114 ft | 458 kts | 308° |
| 2026-04-14 17:40 | -15.91611 | 49.03992 | 40105 ft | 459 kts | 308° |
| 2026-04-14 17:40 | -15.87522 | 48.98922 | 40104 ft | 459 kts | 308° |
| 2026-04-14 17:41 | -15.83420 | 48.93840 | 40102 ft | 459 kts | 308° |
| 2026-04-14 17:41 | -15.79349 | 48.88799 | 40093 ft | 459 kts | 308° |
| 2026-04-14 17:42 | -15.75237 | 48.83711 | 40096 ft | 458 kts | 308° |
| 2026-04-14 17:42 | -15.71145 | 48.78651 | 40080 ft | 459 kts | 308° |
| 2026-04-14 17:43 | -15.67049 | 48.73591 | 40095 ft | 458 kts | 308° |
| 2026-04-14 17:43 | -15.62946 | 48.68524 | 40088 ft | 459 kts | 308° |
| 2026-04-14 17:44 | -15.58862 | 48.63485 | 40083 ft | 459 kts | 308° |
| 2026-04-14 17:44 | -15.54753 | 48.58418 | 40072 ft | 459 kts | 308° |
| 2026-04-14 17:45 | -15.50639 | 48.53348 | 40084 ft | 459 kts | 308° |
| 2026-04-14 17:45 | -15.46532 | 48.48290 | 40063 ft | 459 kts | 308° |
| 2026-04-14 17:46 | -15.42416 | 48.43225 | 40030 ft | 460 kts | 308° |
| 2026-04-14 17:46 | -15.38299 | 48.38163 | 40018 ft | 459 kts | 308° |
| 2026-04-14 17:47 | -15.34197 | 48.33122 | 39992 ft | 461 kts | 309° |
| 2026-04-14 17:47 | -15.30053 | 48.28033 | 39994 ft | 460 kts | 309° |
| 2026-04-14 17:48 | -15.25950 | 48.22997 | 39971 ft | 461 kts | 309° |
| 2026-04-14 17:48 | -15.21816 | 48.17927 | 39973 ft | 460 kts | 309° |
| 2026-04-14 17:49 | -15.17666 | 48.12840 | 39955 ft | 461 kts | 309° |
| 2026-04-14 17:49 | -15.13547 | 48.07795 | 39946 ft | 460 kts | 309° |
| 2026-04-14 17:50 | -15.09394 | 48.02712 | 39920 ft | 462 kts | 309° |
| 2026-04-14 17:50 | -15.05252 | 47.97645 | 39909 ft | 461 kts | 309° |
| 2026-04-14 17:51 | -15.01111 | 47.92583 | 39924 ft | 462 kts | 309° |
| 2026-04-14 17:51 | -14.96966 | 47.87519 | 39922 ft | 463 kts | 309° |
| 2026-04-14 17:52 | -14.92817 | 47.82454 | 39927 ft | 462 kts | 309° |
| 2026-04-14 17:52 | -14.88678 | 47.77405 | 39930 ft | 461 kts | 309° |
| 2026-04-14 17:53 | -14.84503 | 47.72315 | 39920 ft | 461 kts | 309° |
| 2026-04-14 17:53 | -14.80330 | 47.67230 | 39911 ft | 460 kts | 309° |
| 2026-04-14 17:54 | -14.76169 | 47.62163 | 39905 ft | 462 kts | 309° |
| 2026-04-14 17:54 | -14.72009 | 47.57101 | 39899 ft | 462 kts | 309° |
| 2026-04-14 17:55 | -14.67824 | 47.52013 | 39896 ft | 462 kts | 309° |
| 2026-04-14 17:55 | -14.63646 | 47.46934 | 39903 ft | 461 kts | 309° |
| 2026-04-14 17:56 | -14.59477 | 47.41871 | 39899 ft | 462 kts | 309° |
| 2026-04-14 17:56 | -14.55286 | 47.36785 | 39907 ft | 461 kts | 309° |
| 2026-04-14 17:57 | -14.51098 | 47.31706 | 39918 ft | 461 kts | 309° |
| 2026-04-14 17:57 | -14.46888 | 47.26602 | 39920 ft | 463 kts | 309° |
| 2026-04-14 17:58 | -14.42691 | 47.21518 | 39920 ft | 461 kts | 309° |
| 2026-04-14 17:58 | -14.38491 | 47.16433 | 39923 ft | 463 kts | 309° |
| 2026-04-14 17:59 | -14.34316 | 47.11383 | 39926 ft | 461 kts | 309° |
| 2026-04-14 17:59 | -14.30122 | 47.06312 | 39923 ft | 463 kts | 309° |
| 2026-04-14 18:00 | -14.25973 | 47.01300 | 39020 ft | 458 kts | 309° |
| 2026-04-14 18:00 | -14.23878 | 46.98768 | 37928 ft | 462 kts | 309° |
| 2026-04-14 18:00 | -14.19655 | 46.93670 | 36157 ft | 462 kts | 309° |
| 2026-04-14 18:01 | -14.17577 | 46.91163 | 35284 ft | 462 kts | 309° |
| 2026-04-14 18:01 | -14.15458 | 46.88607 | 34371 ft | 463 kts | 309° |
| 2026-04-14 18:01 | -14.13365 | 46.86083 | 33446 ft | 463 kts | 309° |
| 2026-04-14 18:01 | -14.11247 | 46.83530 | 32571 ft | 463 kts | 309° |
| 2026-04-14 18:02 | -14.09132 | 46.80981 | 31673 ft | 464 kts | 309° |
| 2026-04-14 18:02 | -14.07008 | 46.78422 | 30764 ft | 465 kts | 309° |
| 2026-04-14 18:02 | -14.04909 | 46.75895 | 30211 ft | 458 kts | 309° |
| 2026-04-14 18:02 | -14.02852 | 46.73418 | 29731 ft | 451 kts | 310° |
| 2026-04-14 18:03 | -14.00800 | 46.70948 | 29204 ft | 446 kts | 310° |
| 2026-04-14 18:03 | -13.98780 | 46.68517 | 28664 ft | 445 kts | 310° |
| 2026-04-14 18:03 | -13.96757 | 46.66084 | 28118 ft | 457 kts | 310° |
| 2026-04-14 18:03 | -13.94665 | 46.63569 | 27509 ft | 458 kts | 310° |
| 2026-04-14 18:04 | -13.92602 | 46.61089 | 26786 ft | 454 kts | 309° |
| 2026-04-14 18:04 | -13.90576 | 46.58653 | 26387 ft | 450 kts | 309° |
| 2026-04-14 18:04 | -13.88538 | 46.56205 | 26092 ft | 450 kts | 309° |
| 2026-04-14 18:04 | -13.86484 | 46.53738 | 25753 ft | 451 kts | 309° |
| 2026-04-14 18:05 | -13.84420 | 46.51259 | 24883 ft | 454 kts | 309° |
| 2026-04-14 18:05 | -13.82371 | 46.48799 | 24150 ft | 453 kts | 309° |
| 2026-04-14 18:05 | -13.80351 | 46.46375 | 23606 ft | 446 kts | 309° |
| 2026-04-14 18:05 | -13.78344 | 46.43967 | 22925 ft | 443 kts | 309° |
| 2026-04-14 18:06 | -13.76331 | 46.41554 | 22264 ft | 439 kts | 309° |
| 2026-04-14 18:06 | -13.74372 | 46.39205 | 21653 ft | 433 kts | 309° |
| 2026-04-14 18:06 | -13.72410 | 46.36853 | 21065 ft | 428 kts | 309° |
| 2026-04-14 18:06 | -13.70490 | 46.34553 | 20493 ft | 423 kts | 309° |
| 2026-04-14 18:07 | -13.68587 | 46.32274 | 19960 ft | 419 kts | 309° |
| 2026-04-14 18:07 | -13.66679 | 46.29988 | 19383 ft | 417 kts | 309° |
| 2026-04-14 18:07 | -13.64792 | 46.27728 | 18528 ft | 417 kts | 310° |
| 2026-04-14 18:07 | -13.62912 | 46.25476 | 17736 ft | 414 kts | 310° |
| 2026-04-14 18:08 | -13.61059 | 46.23259 | 17072 ft | 406 kts | 310° |
| 2026-04-14 18:08 | -13.59231 | 46.21072 | 16474 ft | 398 kts | 310° |
| 2026-04-14 18:08 | -13.57428 | 46.18910 | 15913 ft | 394 kts | 310° |
| 2026-04-14 18:08 | -13.55638 | 46.16761 | 15314 ft | 393 kts | 310° |
| 2026-04-14 18:09 | -13.53870 | 46.14640 | 14734 ft | 391 kts | 310° |
| 2026-04-14 18:09 | -13.52120 | 46.12541 | 14163 ft | 390 kts | 310° |
| 2026-04-14 18:09 | -13.50350 | 46.10419 | 13584 ft | 388 kts | 311° |
| 2026-04-14 18:09 | -13.48600 | 46.08321 | 13012 ft | 386 kts | 311° |
| 2026-04-14 18:10 | -13.46849 | 46.06223 | 12436 ft | 385 kts | 311° |
| 2026-04-14 18:10 | -13.45113 | 46.04143 | 11861 ft | 383 kts | 311° |
| 2026-04-14 18:10 | -13.43376 | 46.02062 | 11287 ft | 381 kts | 311° |
| 2026-04-14 18:10 | -13.41666 | 46.00015 | 10770 ft | 378 kts | 311° |
| 2026-04-14 18:11 | -13.39996 | 45.98015 | 10643 ft | 363 kts | 311° |
| 2026-04-14 18:11 | -13.38374 | 45.96073 | 10552 ft | 348 kts | 311° |
| 2026-04-14 18:11 | -13.36819 | 45.94212 | 10427 ft | 336 kts | 311° |
| 2026-04-14 18:11 | -13.35333 | 45.92435 | 10291 ft | 325 kts | 311° |
| 2026-04-14 18:12 | -13.33882 | 45.90700 | 10161 ft | 316 kts | 311° |
| 2026-04-14 18:12 | -13.32462 | 45.89002 | 10025 ft | 307 kts | 311° |
| 2026-04-14 18:12 | -13.31094 | 45.87366 | 9766 ft | 304 kts | 311° |
| 2026-04-14 18:12 | -13.29714 | 45.85717 | 9375 ft | 305 kts | 311° |
| 2026-04-14 18:13 | -13.28320 | 45.84051 | 8998 ft | 304 kts | 311° |
| 2026-04-14 18:13 | -13.26960 | 45.82426 | 8654 ft | 302 kts | 311° |
| 2026-04-14 18:13 | -13.25595 | 45.80795 | 8313 ft | 299 kts | 311° |
| 2026-04-14 18:13 | -13.24244 | 45.79181 | 7974 ft | 297 kts | 311° |
| 2026-04-14 18:14 | -13.22897 | 45.77573 | 7638 ft | 295 kts | 311° |
| 2026-04-14 18:14 | -13.21563 | 45.75980 | 7308 ft | 293 kts | 311° |
| 2026-04-14 18:14 | -13.20248 | 45.74411 | 6984 ft | 291 kts | 311° |
| 2026-04-14 18:14 | -13.18927 | 45.72834 | 6657 ft | 289 kts | 311° |
| 2026-04-14 18:15 | -13.17616 | 45.71268 | 6334 ft | 287 kts | 311° |
| 2026-04-14 18:15 | -13.16323 | 45.69725 | 6020 ft | 286 kts | 311° |
| 2026-04-14 18:15 | -13.15024 | 45.68176 | 5702 ft | 284 kts | 311° |
| 2026-04-14 18:15 | -13.13750 | 45.66657 | 5391 ft | 282 kts | 311° |
| 2026-04-14 18:16 | -13.12462 | 45.65121 | 5077 ft | 281 kts | 311° |
| 2026-04-14 18:16 | -13.11207 | 45.63624 | 4775 ft | 279 kts | 311° |
| 2026-04-14 18:16 | -13.09939 | 45.62113 | 4470 ft | 277 kts | 311° |
| 2026-04-14 18:16 | -13.08682 | 45.60614 | 4168 ft | 275 kts | 311° |
| 2026-04-14 18:17 | -13.07457 | 45.59155 | 4022 ft | 267 kts | 311° |
| 2026-04-14 18:17 | -13.06238 | 45.57702 | 3925 ft | 268 kts | 311° |
| 2026-04-14 18:17 | -13.05031 | 45.56265 | 3738 ft | 264 kts | 311° |
| 2026-04-14 18:17 | -13.03843 | 45.54849 | 3604 ft | 258 kts | 311° |
| 2026-04-14 18:18 | -13.02675 | 45.53458 | 3463 ft | 253 kts | 311° |
| 2026-04-14 18:18 | -13.01539 | 45.52106 | 3321 ft | 248 kts | 311° |
| 2026-04-14 18:18 | -13.00432 | 45.50791 | 3178 ft | 243 kts | 311° |
| 2026-04-14 18:18 | -12.99441 | 45.49409 | 3049 ft | 237 kts | 296° |
| 2026-04-14 18:19 | -12.98879 | 45.47854 | 2938 ft | 231 kts | 285° |
| 2026-04-14 18:19 | -12.98517 | 45.46262 | 2828 ft | 226 kts | 281° |
| 2026-04-14 18:19 | -12.98213 | 45.44690 | 2717 ft | 220 kts | 281° |
| 2026-04-14 18:19 | -12.97930 | 45.43193 | 2624 ft | 212 kts | 281° |
| 2026-04-14 18:20 | -12.97654 | 45.41734 | 2501 ft | 204 kts | 281° |
| 2026-04-14 18:20 | -12.97227 | 45.40382 | 2371 ft | 195 kts | 304° |
| 2026-04-14 18:20 | -12.96325 | 45.39431 | 2252 ft | 178 kts | 320° |
| 2026-04-14 18:20 | -12.95369 | 45.38664 | 2126 ft | 170 kts | 323° |
| 2026-04-14 18:21 | -12.94423 | 45.37955 | 2005 ft | 166 kts | 324° |
| 2026-04-14 18:21 | -12.93485 | 45.37260 | 1866 ft | 161 kts | 324° |
| 2026-04-14 18:21 | -12.92613 | 45.36614 | 1768 ft | 153 kts | 324° |
| 2026-04-14 18:21 | -12.91759 | 45.35982 | 1648 ft | 149 kts | 324° |
| 2026-04-14 18:22 | -12.90916 | 45.35357 | 1606 ft | 149 kts | 324° |
| 2026-04-14 18:22 | -12.90071 | 45.34731 | 1600 ft | 148 kts | 324° |
| 2026-04-14 18:22 | -12.89235 | 45.34111 | 1597 ft | 149 kts | 324° |
| 2026-04-14 18:22 | -12.88389 | 45.33485 | 1597 ft | 149 kts | 324° |
| 2026-04-14 18:23 | -12.87543 | 45.32849 | 1469 ft | 150 kts | 323° |
| 2026-04-14 18:23 | -12.86715 | 45.32210 | 1274 ft | 150 kts | 323° |
| 2026-04-14 18:23 | -12.85886 | 45.31559 | 1060 ft | 149 kts | 322° |
| 2026-04-14 18:23 | -12.85063 | 45.30907 | 848 ft | 149 kts | 322° |
| 2026-04-14 18:24 | -12.84251 | 45.30246 | 633 ft | 149 kts | 323° |
| 2026-04-14 18:24 | -12.83376 | 45.29665 | 418 ft | 150 kts | 329° |
| 2026-04-14 18:24 | -12.82477 | 45.29130 | 226 ft | 147 kts | 330° |
| 2026-04-14 18:24 | -12.81601 | 45.28611 | 49 ft | 145 kts | 330° |
| 2026-04-14 18:25 | -12.80916 | 45.28204 | 35 ft | 78 kts | 329° |
| 2026-04-14 18:25 | -12.80614 | 45.28024 | 35 ft | 31 kts | 330° |
| 2026-04-14 18:25 | -12.80509 | 45.27963 | 35 ft | 8 kts | 331° |
| 2026-04-14 18:25 | -12.80463 | 45.27954 | 35 ft | 6 kts | 38° |
| 2026-04-14 18:26 | -12.80434 | 45.27997 | 35 ft | 8 kts | 60° |
| 2026-04-14 18:26 | -12.80405 | 45.28048 | 35 ft | 9 kts | 60° |
| 2026-04-14 18:26 | -12.80379 | 45.28095 | 35 ft | 5 kts | 59° |
| 2026-04-14 18:26 | -12.80349 | 45.28120 | 35 ft | 5 kts | 5° |
| 2026-04-14 18:27 | -12.80320 | 45.28128 | 35 ft | 4 kts | 52° |
| 2026-04-14 18:27 | -12.80310 | 45.28154 | 35 ft | 2 kts | 77° |
| 2026-04-14 18:27 | -12.80306 | 45.28174 | 35 ft | 2 kts | 81° |
| 2026-04-14 18:27 | -12.80306 | 45.28175 | 35 ft | 0 kts | 81° |